Time;durP1;ratioP1;P1;durP2;ratioP2;P2;SDS_P1;SDS_P2;PMS_P1;PMS_P2;Temp;Humidity;BMP_temperature;BMP_pressure;BME280_temperature;BME280_humidity;BME280_pressure;Samples;Min_cycle;Max_cycle;Signal;HPM_P1;HPM_P2
2022/01/19 00:02:01;;;;;;;11.27;6.38;;;;;;;;;;5035184;28;20041;-73
2022/01/19 00:04:29;;;;;;;14.57;7.03;;;;;;;;;;5035441;28;20055;-73
2022/01/19 00:06:56;;;;;;;14.00;6.63;;;;;;;;;;5034238;28;20411;-73
2022/01/19 00:09:26;;;;;;;12.38;6.65;;;;;;;;;;5035082;28;20045;-73
2022/01/19 00:11:57;;;;;;;13.57;6.80;;;;;;;;;;5033888;28;20419;-73
2022/01/19 00:14:30;;;;;;;13.52;6.53;;;;;;;;;;5033656;28;20045;-73
2022/01/19 00:16:58;;;;;;;12.02;7.13;;;;;;;;;;5035078;28;20049;-73
2022/01/19 00:19:30;;;;;;;13.20;6.63;;;;;;;;;;5034004;28;20443;-74
2022/01/19 00:22:03;;;;;;;15.52;7.60;;;;;;;;;;5033717;28;20045;-73
2022/01/19 00:24:34;;;;;;;14.32;6.85;;;;;;;;;;5033969;28;20099;-73
2022/01/19 00:27:02;;;;;;;13.43;7.03;;;;;;;;;;5034850;28;20076;-73
2022/01/19 00:29:33;;;;;;;13.30;7.15;;;;;;;;;;5034771;28;20037;-73
2022/01/19 00:32:04;;;;;;;16.73;8.38;;;;;;;;;;5032984;28;20045;-73
2022/01/19 00:34:35;;;;;;;16.48;8.00;;;;;;;;;;5033447;28;20053;-73
2022/01/19 00:37:08;;;;;;;14.82;8.43;;;;;;;;;;5033897;28;20436;-73
2022/01/19 00:39:41;;;;;;;18.08;7.97;;;;;;;;;;5034739;28;20453;-73
2022/01/19 00:42:11;;;;;;;13.65;7.80;;;;;;;;;;5034529;28;20041;-73
2022/01/19 00:44:40;;;;;;;17.83;7.85;;;;;;;;;;5033011;28;20049;-73
2022/01/19 00:47:15;;;;;;;15.48;7.55;;;;;;;;;;5033065;28;20504;-73
2022/01/19 00:49:43;;;;;;;21.27;7.50;;;;;;;;;;5033314;28;20042;-73
2022/01/19 00:52:11;;;;;;;12.60;6.43;;;;;;;;;;5033756;28;20496;-73
2022/01/19 00:54:41;;;;;;;16.15;7.60;;;;;;;;;;5033045;28;20037;-73
2022/01/19 00:57:10;;;;;;;11.90;6.30;;;;;;;;;;5034378;28;20077;-73
2022/01/19 00:59:42;;;;;;;15.00;6.30;;;;;;;;;;5032834;28;20045;-73
2022/01/19 01:02:12;;;;;;;11.73;6.22;;;;;;;;;;5033805;28;20045;-73
2022/01/19 01:04:43;;;;;;;13.27;6.50;;;;;;;;;;5032932;28;20124;-73
2022/01/19 01:07:11;;;;;;;12.75;6.22;;;;;;;;;;5032067;28;20053;-73
2022/01/19 01:09:39;;;;;;;11.63;5.93;;;;;;;;;;5016416;28;20041;-73
2022/01/19 01:12:22;;;;;;;10.07;5.85;;;;;;;;;;5032746;28;20065;-73
2022/01/19 01:20:38;;;;;;;10.63;5.65;;;;;;;;;;5033936;28;20045;-73
2022/01/19 01:23:09;;;;;;;11.90;5.30;;;;;;;;;;5032471;28;20523;-73
2022/01/19 01:25:44;;;;;;;12.95;5.07;;;;;;;;;;5032507;28;20053;-73
2022/01/19 01:28:12;;;;;;;9.48;4.95;;;;;;;;;;5032280;28;20575;-73
2022/01/19 01:30:42;;;;;;;10.70;5.25;;;;;;;;;;5032119;28;20129;-73
2022/01/19 01:33:35;;;;;;;10.25;5.07;;;;;;;;;;5032096;28;20069;-73
2022/01/19 01:36:05;;;;;;;11.13;5.28;;;;;;;;;;5032206;28;20045;-73
2022/01/19 01:38:40;;;;;;;11.05;5.05;;;;;;;;;;5032191;28;20484;-74
2022/01/19 01:41:14;;;;;;;10.48;5.30;;;;;;;;;;5033391;28;20049;-73
2022/01/19 01:43:54;;;;;;;14.20;6.15;;;;;;;;;;5031994;28;20183;-73
2022/01/19 01:46:41;;;;;;;10.75;5.30;;;;;;;;;;5031933;28;20053;-73
2022/01/19 01:59:51;;;;;;;12.32;5.68;;;;;;;;;;5033470;28;20036;-72
2022/01/19 02:02:57;;;;;;;10.13;5.20;;;;;;;;;;5032163;28;20045;-73
2022/01/19 02:05:28;;;;;;;9.93;4.97;;;;;;;;;;5031518;28;20077;-73
2022/01/19 02:10:56;;;;;;;11.13;5.15;;;;;;;;;;5031560;28;20037;-73
2022/01/19 02:21:36;;;;;;;10.30;5.32;;;;;;;;;;5033051;28;20048;-72
2022/01/19 02:23:28;;;;;;;12.35;5.97;;;;;;;;;;5032862;28;20427;-73
2022/01/19 02:25:59;;;;;;;14.23;6.00;;;;;;;;;;5032660;28;20517;-73
2022/01/19 02:40:13;;;;;;;12.80;6.43;;;;;;;;;;5032379;28;20112;-73
2022/01/19 02:49:19;;;;;;;14.25;5.80;;;;;;;;;;5002260;28;20049;-73
2022/01/19 02:52:14;;;;;;;15.00;6.20;;;;;;;;;;5032382;28;20034;-73
2022/01/19 02:55:07;;;;;;;16.85;5.90;;;;;;;;;;5034117;28;20076;-73
2022/01/19 02:58:00;;;;;;;13.52;6.68;;;;;;;;;;5035298;28;20133;-72
2022/01/19 03:09:04;;;;;;;13.60;5.70;;;;;;;;;;5035075;28;20393;-72
2022/01/19 03:11:36;;;;;;;10.98;6.13;;;;;;;;;;5035071;28;20455;-72
2022/01/19 03:14:08;;;;;;;12.38;6.05;;;;;;;;;;5035004;28;20045;-72
2022/01/19 03:16:37;;;;;;;12.10;6.10;;;;;;;;;;5036122;28;20041;-72
2022/01/19 03:19:08;;;;;;;11.13;5.85;;;;;;;;;;5034832;28;20455;-72
2022/01/19 03:21:38;;;;;;;13.77;6.40;;;;;;;;;;5034907;28;20045;-72
2022/01/19 03:24:37;;;;;;;11.88;6.28;;;;;;;;;;5034665;28;20080;-72
2022/01/19 03:27:08;;;;;;;13.68;5.60;;;;;;;;;;5034789;28;20073;-72
2022/01/19 03:30:03;;;;;;;8.95;5.65;;;;;;;;;;5034549;28;20053;-73
2022/01/19 03:32:56;;;;;;;13.18;6.25;;;;;;;;;;5034466;28;20046;-74
2022/01/19 03:35:24;;;;;;;15.80;6.32;;;;;;;;;;5034568;28;20141;-73
2022/01/19 03:38:17;;;;;;;13.60;6.88;;;;;;;;;;5034497;28;20095;-74
2022/01/19 03:40:49;;;;;;;13.60;6.20;;;;;;;;;;5034886;28;20045;-74
2022/01/19 03:43:17;;;;;;;13.88;6.45;;;;;;;;;;5034520;28;20046;-74
2022/01/19 03:45:58;;;;;;;12.38;6.22;;;;;;;;;;5019210;28;20045;-74
2022/01/19 03:51:28;;;;;;;13.30;6.35;;;;;;;;;;5030001;28;20042;-74
2022/01/19 03:54:00;;;;;;;11.00;5.53;;;;;;;;;;5034328;28;20575;-73
2022/01/19 03:56:28;;;;;;;15.77;7.95;;;;;;;;;;5034085;28;20065;-72
2022/01/19 03:59:01;;;;;;;10.32;5.80;;;;;;;;;;5034504;28;20049;-72
2022/01/19 04:01:34;;;;;;;11.57;6.07;;;;;;;;;;5034139;28;20128;-72
2022/01/19 04:06:56;;;;;;;11.68;6.10;;;;;;;;;;5033195;28;20072;-72
2022/01/19 04:09:24;;;;;;;10.85;5.88;;;;;;;;;;5033331;28;20038;-72
2022/01/19 04:15:07;;;;;;;11.30;6.38;;;;;;;;;;5033811;28;20041;-72
2022/01/19 04:17:51;;;;;;;15.40;6.72;;;;;;;;;;5033170;28;20124;-72
2022/01/19 04:20:26;;;;;;;14.73;6.70;;;;;;;;;;5033047;28;20115;-72
2022/01/19 04:23:25;;;;;;;14.95;6.90;;;;;;;;;;5033213;28;20073;-72
2022/01/19 04:25:54;;;;;;;13.20;7.20;;;;;;;;;;5034828;28;20140;-72
2022/01/19 04:28:22;;;;;;;13.95;6.22;;;;;;;;;;5033300;28;20041;-72
2022/01/19 04:30:54;;;;;;;15.45;7.53;;;;;;;;;;5033616;28;20057;-72
2022/01/19 04:33:33;;;;;;;11.98;6.22;;;;;;;;;;5033111;28;20045;-72
2022/01/19 04:36:25;;;;;;;11.32;6.45;;;;;;;;;;5033198;28;20498;-72
2022/01/19 04:45:10;;;;;;;12.88;6.28;;;;;;;;;;5034316;28;20049;-72
2022/01/19 05:13:27;;;;;;;13.02;6.68;;;;;;;;;;5033880;28;20124;-72
2022/01/19 05:15:56;;;;;;;12.95;7.43;;;;;;;;;;5033331;28;20095;-72
2022/01/19 05:18:32;;;;;;;17.13;8.00;;;;;;;;;;5031746;28;20050;-72
2022/01/19 05:21:01;;;;;;;12.63;7.53;;;;;;;;;;5032756;28;20045;-72
2022/01/19 05:24:04;;;;;;;13.77;7.00;;;;;;;;;;5032496;28;20092;-73
2022/01/19 05:26:40;;;;;;;16.23;7.07;;;;;;;;;;5033754;28;20104;-73
2022/01/19 05:29:10;;;;;;;12.35;6.55;;;;;;;;;;5031704;28;20384;-72
2022/01/19 05:31:38;;;;;;;13.50;6.85;;;;;;;;;;5031122;28;20045;-72
2022/01/19 05:34:09;;;;;;;15.82;6.70;;;;;;;;;;5031149;28;20050;-72
2022/01/19 05:36:45;;;;;;;13.10;7.50;;;;;;;;;;5016371;28;20095;-72
2022/01/19 05:39:53;;;;;;;13.82;6.90;;;;;;;;;;5032387;28;20056;-74
2022/01/19 05:42:28;;;;;;;13.93;7.57;;;;;;;;;;5034269;28;20041;-74
2022/01/19 05:44:55;;;;;;;15.38;7.97;;;;;;;;;;5036077;28;20087;-74
2022/01/19 05:47:48;;;;;;;22.63;10.02;;;;;;;;;;5052292;28;20131;-73
2022/01/19 05:50:19;;;;;;;24.08;11.95;;;;;;;;;;5052056;28;20052;-74
2022/01/19 05:52:58;;;;;;;21.98;9.40;;;;;;;;;;5052176;28;20072;-74
2022/01/19 05:55:31;;;;;;;23.75;10.10;;;;;;;;;;5053371;28;20061;-73
2022/01/19 05:58:00;;;;;;;23.42;10.02;;;;;;;;;;5052185;28;20076;-73
2022/01/19 06:00:33;;;;;;;17.98;8.85;;;;;;;;;;5035469;28;20044;-72
2022/01/19 06:03:17;;;;;;;22.27;9.30;;;;;;;;;;5053686;28;20049;-72
2022/01/19 06:06:06;;;;;;;19.25;9.77;;;;;;;;;;5052122;28;20073;-72
2022/01/19 06:09:03;;;;;;;19.45;10.05;;;;;;;;;;5042765;28;20095;-72
2022/01/19 06:11:59;;;;;;;34.80;15.15;;;;;;;;;;5052956;28;20040;-74
2022/01/19 06:14:28;;;;;;;;;;;;;;;;;;5052423;28;20049;-73
2022/01/19 06:16:57;;;;;;;26.85;10.95;;;;;;;;;;5051528;28;20276;-73
2022/01/19 06:19:30;;;;;;;16.83;9.25;;;;;;;;;;5051831;28;20512;-73
2022/01/19 06:21:58;;;;;;;35.08;15.75;;;;;;;;;;5051894;28;20090;-73
2022/01/19 06:24:29;;;;;;;18.85;9.48;;;;;;;;;;5051580;28;20068;-73
2022/01/19 06:27:07;;;;;;;28.13;10.00;;;;;;;;;;5053148;28;20527;-73
2022/01/19 06:29:44;;;;;;;20.27;9.02;;;;;;;;;;5054656;28;20041;-73
2022/01/19 06:32:13;;;;;;;23.48;10.70;;;;;;;;;;5055187;28;20072;-73
2022/01/19 06:34:58;;;;;;;20.70;10.23;;;;;;;;;;5038974;28;20486;-73
2022/01/19 06:37:43;;;;;;;23.73;9.80;;;;;;;;;;5055612;28;20052;-73
2022/01/19 06:40:47;;;;;;;22.17;9.32;;;;;;;;;;5051141;28;20052;-73
2022/01/19 06:43:18;;;;;;;17.48;8.85;;;;;;;;;;5055391;28;20040;-73
2022/01/19 06:46:00;;;;;;;15.13;8.63;;;;;;;;;;5056998;28;20041;-73
2022/01/19 06:48:34;;;;;;;15.77;9.23;;;;;;;;;;5055023;28;20041;-73
2022/01/19 06:54:19;;;;;;;15.20;8.02;;;;;;;;;;5055127;28;20041;-73
2022/01/19 06:57:13;;;;;;;15.68;7.90;;;;;;;;;;5054952;28;20044;-73
2022/01/19 07:00:01;;;;;;;17.35;8.23;;;;;;;;;;5056625;28;20044;-73
2022/01/19 07:02:54;;;;;;;19.60;9.35;;;;;;;;;;5056252;28;20045;-73
2022/01/19 07:05:43;;;;;;;18.48;8.85;;;;;;;;;;5054811;28;20414;-73
2022/01/19 07:08:34;;;;;;;19.30;9.05;;;;;;;;;;5056056;28;20186;-75
2022/01/19 07:11:03;;;;;;;19.38;8.30;;;;;;;;;;5054856;28;20052;-73
2022/01/19 07:13:40;;;;;;;21.33;8.30;;;;;;;;;;5055066;28;20140;-72
2022/01/19 07:16:09;;;;;;;17.63;8.75;;;;;;;;;;5038387;28;20037;-72
2022/01/19 07:18:40;;;;;;;20.65;8.38;;;;;;;;;;5055262;28;20045;-72
2022/01/19 07:21:13;;;;;;;15.68;7.78;;;;;;;;;;5054778;28;20052;-73
2022/01/19 07:23:48;;;;;;;18.40;8.70;;;;;;;;;;5054864;28;20041;-72
2022/01/19 07:26:23;;;;;;;17.73;7.25;;;;;;;;;;5054634;28;20483;-72
2022/01/19 07:29:16;;;;;;;14.60;6.68;;;;;;;;;;5054743;28;20507;-72
2022/01/19 07:31:55;;;;;;;13.68;7.05;;;;;;;;;;5055314;28;20067;-72
2022/01/19 07:34:33;;;;;;;9.95;6.07;;;;;;;;;;5054580;28;20127;-72
2022/01/19 07:37:08;;;;;;;14.32;6.47;;;;;;;;;;5038608;28;20045;-72
2022/01/19 07:39:40;;;;;;;13.57;6.75;;;;;;;;;;5054759;28;20087;-72
2022/01/19 07:42:33;;;;;;;14.32;7.85;;;;;;;;;;5054361;28;20064;-73
2022/01/19 07:45:05;;;;;;;14.27;6.85;;;;;;;;;;5055779;28;20037;-72
2022/01/19 07:52:05;;;;;;;13.70;6.40;;;;;;;;;;5055985;28;20100;-72
2022/01/19 07:54:59;;;;;;;14.95;6.68;;;;;;;;;;5062963;28;20056;-71
2022/01/19 07:58:15;;;;;;;15.38;6.72;;;;;;;;;;5057474;28;20048;-72
2022/01/19 08:00:52;;;;;;;15.02;6.22;;;;;;;;;;5056889;28;20087;-74
2022/01/19 08:03:43;;;;;;;13.07;5.78;;;;;;;;;;5055232;28;20056;-72
2022/01/19 08:06:58;;;;;;;9.90;5.63;;;;;;;;;;5038574;28;20083;-72
2022/01/19 08:09:34;;;;;;;13.18;6.38;;;;;;;;;;5053981;28;20446;-72
2022/01/19 08:12:35;;;;;;;10.50;5.85;;;;;;;;;;5053463;28;20060;-72
2022/01/19 08:15:28;;;;;;;10.65;6.10;;;;;;;;;;5055079;28;20456;-72
2022/01/19 08:17:58;;;;;;;13.30;5.22;;;;;;;;;;5053430;28;20045;-72
2022/01/19 08:20:48;;;;;;;13.75;5.38;;;;;;;;;;5053501;28;20104;-72
2022/01/19 08:23:43;;;;;;;8.50;4.90;;;;;;;;;;5053508;28;20049;-72
2022/01/19 08:26:37;;;;;;;9.95;5.22;;;;;;;;;;5052929;28;20805;-72
2022/01/19 08:29:33;;;;;;;11.38;5.40;;;;;;;;;;5053231;28;20041;-72
2022/01/19 08:32:05;;;;;;;;;;;;;;;;;;5053446;28;20041;-72
2022/01/19 08:35:51;;;;;;;8.40;4.72;;;;;;;;;;5049601;28;19928;-72
2022/01/19 08:38:53;;;;;;;21.05;9.85;;;;;;;;;;5055204;28;20483;-72
2022/01/19 08:41:36;;;;;;;9.18;5.22;;;;;;;;;;5053500;28;20045;-72
2022/01/19 08:44:05;;;;;;;12.82;5.40;;;;;;;;;;5053146;28;20047;-72
2022/01/19 08:47:01;;;;;;;13.88;5.38;;;;;;;;;;5053392;28;20053;-72
2022/01/19 08:50:43;;;;;;;11.13;5.85;;;;;;;;;;5053178;28;20051;-72
2022/01/19 08:53:52;;;;;;;11.88;5.20;;;;;;;;;;5053200;28;20415;-72
2022/01/19 08:57:14;;;;;;;12.10;5.30;;;;;;;;;;5053659;28;20447;-71
2022/01/19 08:59:42;;;;;;;14.48;5.40;;;;;;;;;;5053465;28;20049;-72
2022/01/19 09:02:11;;;;;;;13.90;6.38;;;;;;;;;;5054262;28;20106;-72
2022/01/19 09:05:04;;;;;;;14.40;6.30;;;;;;;;;;5054573;28;20053;-74
2022/01/19 09:07:32;;;;;;;12.55;5.68;;;;;;;;;;5052623;28;20045;-72
2022/01/19 09:10:25;;;;;;;10.45;5.10;;;;;;;;;;5053946;28;20066;-74
2022/01/19 09:13:18;;;;;;;9.77;4.65;;;;;;;;;;5052676;28;20045;-72
2022/01/19 09:15:47;;;;;;;9.77;4.63;;;;;;;;;;5052411;28;20041;-72
2022/01/19 09:21:30;;;;;;;12.30;5.10;;;;;;;;;;5052006;28;20465;-74
2022/01/19 09:24:24;;;;;;;11.30;4.65;;;;;;;;;;5053530;28;20067;-73
2022/01/19 09:26:56;;;;;;;9.20;4.75;;;;;;;;;;5052885;28;20057;-73
2022/01/19 09:29:24;;;;;;;10.65;5.05;;;;;;;;;;5053309;28;20546;-74
2022/01/19 09:31:56;;;;;;;12.50;4.50;;;;;;;;;;5053563;28;20131;-73
2022/01/19 09:34:29;;;;;;;13.48;5.50;;;;;;;;;;5052404;28;20036;-73
2022/01/19 09:36:57;;;;;;;13.43;4.82;;;;;;;;;;5035830;28;20131;-73
2022/01/19 09:39:29;;;;;;;9.88;4.95;;;;;;;;;;5052183;28;20098;-73
2022/01/19 09:42:26;;;;;;;9.23;4.93;;;;;;;;;;5052314;28;20048;-74
2022/01/19 09:44:54;;;;;;;14.77;6.30;;;;;;;;;;5052172;28;20045;-73
2022/01/19 09:47:51;;;;;;;9.63;5.30;;;;;;;;;;5052818;28;20048;-73
2022/01/19 09:50:19;;;;;;;11.02;4.55;;;;;;;;;;5052072;28;20045;-73
2022/01/19 09:52:46;;;;;;;10.88;4.85;;;;;;;;;;5053641;28;20037;-73
2022/01/19 09:55:15;;;;;;;12.68;5.75;;;;;;;;;;5053329;28;20033;-73
2022/01/19 09:57:45;;;;;;;10.32;5.38;;;;;;;;;;5051725;28;20045;-73
2022/01/19 10:00:23;;;;;;;10.35;4.60;;;;;;;;;;5053261;28;20502;-73
2022/01/19 10:03:13;;;;;;;9.07;4.75;;;;;;;;;;5052671;28;20037;-73
2022/01/19 10:06:10;;;;;;;15.73;5.03;;;;;;;;;;5051617;28;20037;-73
2022/01/19 10:09:03;;;;;;;10.60;4.90;;;;;;;;;;5052673;28;20132;-73
2022/01/19 10:17:40;;;;;;;12.10;5.05;;;;;;;;;;5052585;28;20040;-73
2022/01/19 10:20:28;;;;;;;7.53;4.50;;;;;;;;;;5051575;28;20033;-72
2022/01/19 10:22:57;;;;;;;8.68;5.63;;;;;;;;;;5052977;28;20045;-74
2022/01/19 10:25:25;;;;;;;13.38;7.45;;;;;;;;;;5051897;28;20049;-72
2022/01/19 10:27:52;;;;;;;15.68;8.48;;;;;;;;;;5052783;28;20038;-72
2022/01/19 10:30:26;;;;;;;9.13;4.40;;;;;;;;;;5052029;28;20483;-72
2022/01/19 10:32:59;;;;;;;11.18;5.82;;;;;;;;;;5053003;28;20048;-72
2022/01/19 10:35:33;;;;;;;8.90;5.20;;;;;;;;;;5052746;28;20055;-72
2022/01/19 10:38:28;;;;;;;11.50;5.72;;;;;;;;;;5051917;28;20110;-72
2022/01/19 10:41:27;;;;;;;10.18;5.20;;;;;;;;;;5053304;28;20041;-72
2022/01/19 10:44:19;;;;;;;10.40;5.28;;;;;;;;;;5052548;28;20071;-72
2022/01/19 10:46:51;;;;;;;10.95;5.18;;;;;;;;;;5051556;28;20143;-72
2022/01/19 10:49:21;;;;;;;12.10;5.47;;;;;;;;;;5052854;28;20072;-73
2022/01/19 10:51:58;;;;;;;9.25;4.88;;;;;;;;;;5052470;28;20044;-73
2022/01/19 10:54:31;;;;;;;9.70;4.70;;;;;;;;;;5052916;28;20091;-73
2022/01/19 10:57:15;;;;;;;8.50;5.07;;;;;;;;;;5052990;28;20080;-73
2022/01/19 11:00:18;;;;;;;11.65;5.25;;;;;;;;;;5053197;28;20037;-72
2022/01/19 11:02:48;;;;;;;10.20;4.22;;;;;;;;;;5052378;28;20087;-72
2022/01/19 11:05:35;;;;;;;8.70;4.30;;;;;;;;;;5052445;28;20088;-72
2022/01/19 11:08:02;;;;;;;9.55;3.90;;;;;;;;;;5050167;28;20059;-72
2022/01/19 11:10:34;;;;;;;8.20;3.83;;;;;;;;;;5052682;28;20484;-72
2022/01/19 11:13:14;;;;;;;9.38;4.07;;;;;;;;;;5050855;28;20098;-72
2022/01/19 11:15:44;;;;;;;9.20;4.50;;;;;;;;;;5053769;28;20045;-72
2022/01/19 11:18:19;;;;;;;7.65;3.88;;;;;;;;;;5054685;28;20041;-72
2022/01/19 11:20:50;;;;;;;9.85;4.53;;;;;;;;;;5056555;28;20049;-72
2022/01/19 11:23:30;;;;;;;7.25;4.70;;;;;;;;;;5054592;28;20104;-72
2022/01/19 11:26:09;;;;;;;9.10;4.65;;;;;;;;;;5054624;28;20079;-73
2022/01/19 11:28:47;;;;;;;9.27;4.50;;;;;;;;;;5055967;28;20564;-73
2022/01/19 11:31:15;;;;;;;11.25;4.82;;;;;;;;;;5042152;28;20045;-72
2022/01/19 11:34:08;;;;;;;8.70;4.68;;;;;;;;;;5035944;28;20038;-72
2022/01/19 11:36:40;;;;;;;7.78;4.13;;;;;;;;;;5034091;28;20042;-72
2022/01/19 11:39:14;;;;;;;15.60;4.97;;;;;;;;;;5034599;28;20145;-73
2022/01/19 11:41:56;;;;;;;9.25;4.65;;;;;;;;;;5035523;28;20120;-73
2022/01/19 11:44:29;;;;;;;10.35;4.32;;;;;;;;;;5035369;28;20049;-73
2022/01/19 11:47:29;;;;;;;9.98;5.28;;;;;;;;;;5034334;28;20055;-73
2022/01/19 11:52:55;;;;;;;11.20;5.50;;;;;;;;;;5055715;28;20691;-74
2022/01/19 11:55:24;;;;;;;9.18;4.90;;;;;;;;;;5054424;28;20514;-73
2022/01/19 11:58:26;;;;;;;9.50;5.20;;;;;;;;;;5055173;28;20029;-73
2022/01/19 12:00:55;;;;;;;7.80;4.43;;;;;;;;;;5054104;28;20044;-73
2022/01/19 12:03:33;;;;;;;14.52;5.25;;;;;;;;;;5037463;28;20128;-73
2022/01/19 12:06:37;;;;;;;9.85;5.60;;;;;;;;;;5053470;28;20041;-73
2022/01/19 12:09:31;;;;;;;8.57;5.27;;;;;;;;;;5054916;28;20049;-73
2022/01/19 12:16:03;;;;;;;9.93;5.65;;;;;;;;;;5014710;28;20399;-73
2022/01/19 12:22:11;;;;;;;11.35;5.43;;;;;;;;;;5055275;28;20049;-74
2022/01/19 12:24:44;;;;;;;8.75;4.90;;;;;;;;;;5053834;28;20395;-73
2022/01/19 12:27:23;;;;;;;8.82;5.07;;;;;;;;;;5054818;28;20037;-73
2022/01/19 12:30:16;;;;;;;9.50;5.22;;;;;;;;;;5055498;28;20083;-73
2022/01/19 12:32:45;;;;;;;14.20;6.10;;;;;;;;;;5053167;28;20056;-73
2022/01/19 12:35:37;;;;;;;12.50;5.47;;;;;;;;;;5055023;28;20044;-73
2022/01/19 12:38:18;;;;;;;9.43;5.40;;;;;;;;;;5054586;28;20480;-73
2022/01/19 12:40:57;;;;;;;9.63;5.53;;;;;;;;;;5054545;28;20032;-73
2022/01/19 12:43:33;;;;;;;11.60;6.35;;;;;;;;;;5053831;28;20037;-73
2022/01/19 12:46:01;;;;;;;11.15;5.78;;;;;;;;;;5054231;28;20491;-73
2022/01/19 12:48:35;;;;;;;12.98;6.32;;;;;;;;;;5054298;28;20041;-73
2022/01/19 12:51:07;;;;;;;15.27;6.85;;;;;;;;;;5036664;28;20060;-73
2022/01/19 12:53:36;;;;;;;14.65;6.88;;;;;;;;;;5053049;28;20041;-73
2022/01/19 12:56:10;;;;;;;10.38;5.65;;;;;;;;;;5054228;28;20503;-73
2022/01/19 12:58:42;;;;;;;8.77;5.50;;;;;;;;;;5037157;28;20128;-73
2022/01/19 13:01:17;;;;;;;9.80;5.57;;;;;;;;;;5053207;28;20460;-73
2022/01/19 13:03:46;;;;;;;10.30;5.10;;;;;;;;;;5054419;28;20075;-72
2022/01/19 13:06:26;;;;;;;10.70;5.55;;;;;;;;;;5053441;28;20406;-73
2022/01/19 13:09:06;;;;;;;12.45;5.40;;;;;;;;;;5054208;28;20060;-73
2022/01/19 13:11:50;;;;;;;11.25;5.78;;;;;;;;;;5053860;28;20048;-73
2022/01/19 13:14:43;;;;;;;12.52;5.47;;;;;;;;;;5052764;28;20049;-73
2022/01/19 13:17:11;;;;;;;11.13;4.78;;;;;;;;;;5053505;28;20136;-74
2022/01/19 13:20:07;;;;;;;11.00;5.00;;;;;;;;;;5053772;28;20065;-73
2022/01/19 13:22:50;;;;;;;7.85;4.43;;;;;;;;;;5054126;28;20454;-74
2022/01/19 13:25:22;;;;;;;10.60;4.53;;;;;;;;;;5054253;28;20476;-73
2022/01/19 13:27:54;;;;;;;11.80;5.05;;;;;;;;;;5053561;28;20472;-73
2022/01/19 13:30:30;;;;;;;10.48;4.32;;;;;;;;;;5053968;28;20491;-73
2022/01/19 13:32:59;;;;;;;7.75;4.28;;;;;;;;;;5053452;28;20514;-73
2022/01/19 13:35:29;;;;;;;23.45;13.45;;;;;;;;;;5053299;28;20045;-73
2022/01/19 13:37:58;;;;;;;31.50;15.25;;;;;;;;;;5052789;28;20091;-74
2022/01/19 13:40:28;;;;;;;12.52;8.20;;;;;;;;;;5053764;28;20044;-73
2022/01/19 13:43:03;;;;;;;8.05;5.15;;;;;;;;;;5051918;28;20037;-74
2022/01/19 13:48:34;;;;;;;17.25;9.18;;;;;;;;;;5053358;28;20048;-73
2022/01/19 13:51:27;;;;;;;18.50;10.40;;;;;;;;;;5053496;28;20044;-73
2022/01/19 13:54:19;;;;;;;11.05;7.25;;;;;;;;;;5051944;28;20570;-73
2022/01/19 13:57:13;;;;;;;129.40;62.95;;;;;;;;;;5053018;28;20036;-73
2022/01/19 14:00:07;;;;;;;21.25;11.32;;;;;;;;;;5052724;28;20090;-73
2022/01/19 14:02:34;;;;;;;32.05;19.88;;;;;;;;;;5052676;28;20090;-73
2022/01/19 14:05:43;;;;;;;45.72;19.55;;;;;;;;;;5052906;28;20048;-73
2022/01/19 14:08:12;;;;;;;335.95;193.63;;;;;;;;;;5049958;28;20057;-73
2022/01/19 14:10:48;;;;;;;153.18;84.38;;;;;;;;;;5053524;28;20068;-73
2022/01/19 14:13:29;;;;;;;65.80;40.67;;;;;;;;;;5051685;28;20041;-73
2022/01/19 14:16:22;;;;;;;123.78;62.58;;;;;;;;;;5051633;28;20037;-73
2022/01/19 14:19:10;;;;;;;206.55;102.32;;;;;;;;;;5053030;28;20069;-73
2022/01/19 14:29:17;;;;;;;663.33;349.10;;;;;;;;;;5052143;28;20368;-73
2022/01/19 14:31:58;;;;;;;253.88;121.45;;;;;;;;;;5047906;28;20076;-73
2022/01/19 14:34:41;;;;;;;32.65;15.10;;;;;;;;;;5013132;28;20045;-73
2022/01/19 14:37:09;;;;;;;21.52;11.00;;;;;;;;;;5013181;28;20057;-73
2022/01/19 14:39:46;;;;;;;22.08;10.60;;;;;;;;;;5012987;28;20480;-73
2022/01/19 14:42:18;;;;;;;19.33;9.40;;;;;;;;;;5011781;28;20053;-73
2022/01/19 14:44:59;;;;;;;15.40;9.35;;;;;;;;;;5013288;28;20104;-73
2022/01/19 14:47:38;;;;;;;15.75;8.65;;;;;;;;;;5012114;28;20072;-74
2022/01/19 14:50:24;;;;;;;25.73;12.55;;;;;;;;;;5015193;28;20401;-74
2022/01/19 14:52:57;;;;;;;20.83;9.52;;;;;;;;;;5016880;28;20050;-74
2022/01/19 14:55:29;;;;;;;17.48;9.20;;;;;;;;;;5015769;28;20084;-74
2022/01/19 14:58:09;;;;;;;18.33;8.80;;;;;;;;;;5015388;28;20046;-74
2022/01/19 15:01:02;;;;;;;17.77;9.77;;;;;;;;;;5015544;28;20129;-76
2022/01/19 15:03:30;;;;;;;17.48;9.95;;;;;;;;;;5015016;28;20050;-76
2022/01/19 15:06:24;;;;;;;17.02;9.35;;;;;;;;;;5016816;28;20034;-76
2022/01/19 15:08:52;;;;;;;17.63;8.82;;;;;;;;;;5015098;28;20054;-76
2022/01/19 15:11:20;;;;;;;15.80;9.98;;;;;;;;;;5015348;28;20049;-75
2022/01/19 15:13:56;;;;;;;19.95;9.80;;;;;;;;;;5015283;28;20042;-75
2022/01/19 15:16:27;;;;;;;19.45;10.52;;;;;;;;;;5015574;28;20115;-75
2022/01/19 15:19:03;;;;;;;23.48;12.20;;;;;;;;;;5015979;28;20137;-76
2022/01/19 15:21:56;;;;;;;30.10;12.65;;;;;;;;;;5015044;28;20532;-75
2022/01/19 15:24:29;;;;;;;29.40;11.38;;;;;;;;;;5015562;28;20046;-74
2022/01/19 15:26:57;;;;;;;23.83;12.25;;;;;;;;;;5016394;28;20037;-76
2022/01/19 15:29:25;;;;;;;28.25;13.23;;;;;;;;;;5015954;28;20038;-77
2022/01/19 15:31:54;;;;;;;27.10;13.55;;;;;;;;;;5015420;28;20080;-84
2022/01/19 15:34:47;;;;;;;23.92;12.23;;;;;;;;;;4998721;28;20042;-76
2022/01/19 15:37:19;;;;;;;22.52;11.80;;;;;;;;;;5014879;28;20042;-77
2022/01/19 15:39:52;;;;;;;25.45;11.07;;;;;;;;;;5016110;28;20520;-76
2022/01/19 15:42:30;;;;;;;24.25;11.35;;;;;;;;;;5016389;28;20084;-76
2022/01/19 15:45:00;;;;;;;19.00;11.02;;;;;;;;;;5014941;28;20038;-76
2022/01/19 15:47:28;;;;;;;18.70;10.95;;;;;;;;;;5014653;28;20045;-76
2022/01/19 15:49:58;;;;;;;23.52;11.25;;;;;;;;;;5014920;28;20038;-76
2022/01/19 15:52:26;;;;;;;27.55;11.23;;;;;;;;;;5016027;28;20120;-77
2022/01/19 15:55:08;;;;;;;31.85;12.18;;;;;;;;;;5014046;28;20034;-76
2022/01/19 15:57:55;;;;;;;17.58;10.13;;;;;;;;;;5015875;28;20042;-77
2022/01/19 16:00:27;;;;;;;22.08;11.73;;;;;;;;;;5015410;28;20048;-76
2022/01/19 16:02:56;;;;;;;27.50;13.20;;;;;;;;;;5013846;28;20649;-76
2022/01/19 16:05:24;;;;;;;27.08;14.40;;;;;;;;;;5016904;28;20041;-76
2022/01/19 16:07:52;;;;;;;31.17;14.90;;;;;;;;;;5028437;28;20041;-76
2022/01/19 16:10:19;;;;;;;32.70;15.77;;;;;;;;;;5034088;28;20049;-76
2022/01/19 16:12:50;;;;;;;38.13;15.82;;;;;;;;;;5035196;28;20045;-76
2022/01/19 16:15:18;;;;;;;32.05;14.05;;;;;;;;;;5034994;28;20037;-76
2022/01/19 16:17:50;;;;;;;27.17;13.60;;;;;;;;;;5067017;28;20488;-76
2022/01/19 16:20:18;;;;;;;24.05;12.90;;;;;;;;;;5034915;28;20120;-76
2022/01/19 16:28:48;;;;;;;21.88;10.07;;;;;;;;;;5035033;28;20125;-76
2022/01/19 16:31:17;;;;;;;18.63;9.97;;;;;;;;;;5034593;28;20459;-76
2022/01/19 16:37:02;;;;;;;21.33;10.73;;;;;;;;;;5036387;28;20142;-77
2022/01/19 16:39:32;;;;;;;22.17;11.07;;;;;;;;;;5034061;28;20041;-76
2022/01/19 16:42:05;;;;;;;20.40;10.50;;;;;;;;;;5034823;28;20372;-76
2022/01/19 16:44:36;;;;;;;21.23;10.10;;;;;;;;;;5066460;28;20065;-76
2022/01/19 16:47:32;;;;;;;21.00;11.05;;;;;;;;;;5033500;28;20057;-77
2022/01/19 16:53:29;;;;;;;16.63;9.82;;;;;;;;;;5033253;28;20063;-76
2022/01/19 16:56:03;;;;;;;21.80;10.95;;;;;;;;;;5033916;28;20079;-76
2022/01/19 16:58:33;;;;;;;19.48;10.90;;;;;;;;;;5032649;28;20492;-76
2022/01/19 17:01:04;;;;;;;19.35;10.45;;;;;;;;;;5033014;28;20041;-76
2022/01/19 17:03:42;;;;;;;21.80;9.90;;;;;;;;;;5032715;28;20052;-76
2022/01/19 17:06:11;;;;;;;18.83;11.02;;;;;;;;;;5033968;28;20056;-76
2022/01/19 17:08:41;;;;;;;26.05;11.18;;;;;;;;;;5065255;28;20046;-76
2022/01/19 17:11:22;;;;;;;22.80;10.80;;;;;;;;;;5034167;28;20049;-77
2022/01/19 17:14:20;;;;;;;22.10;11.00;;;;;;;;;;5065699;28;20128;-75
2022/01/19 17:19:27;;;;;;;22.58;10.85;;;;;;;;;;5033649;28;20042;-76
2022/01/19 17:22:06;;;;;;;25.17;11.52;;;;;;;;;;5034270;28;20045;-75
2022/01/19 17:24:59;;;;;;;22.35;12.93;;;;;;;;;;5034000;28;20048;-75
2022/01/19 17:27:29;;;;;;;25.67;13.15;;;;;;;;;;5034033;28;20080;-75
2022/01/19 17:29:57;;;;;;;27.02;13.27;;;;;;;;;;5032806;28;20041;-75
2022/01/19 17:32:26;;;;;;;19.48;11.57;;;;;;;;;;5026139;28;20046;-75
2022/01/19 17:34:56;;;;;;;27.33;11.82;;;;;;;;;;5032200;28;20539;-75
2022/01/19 17:37:25;;;;;;;22.38;11.27;;;;;;;;;;5033760;28;20456;-76
2022/01/19 17:43:03;;;;;;;22.95;10.40;;;;;;;;;;5029571;28;20175;-81
2022/01/19 17:51:27;;;;;;;20.83;11.27;;;;;;;;;;5032326;28;20397;-81
2022/01/19 17:53:51;;;;;;;26.05;10.63;;;;;;;;;;5033207;28;20097;-79
2022/01/19 17:56:21;;;;;;;18.35;10.10;;;;;;;;;;5033848;28;20435;-83
2022/01/19 17:58:48;;;;;;;19.58;11.57;;;;;;;;;;5033864;28;20103;-82
2022/01/19 18:04:52;;;;;;;18.60;10.48;;;;;;;;;;5033188;28;20056;-78
2022/01/19 18:10:39;;;;;;;19.52;11.30;;;;;;;;;;5031765;28;20060;-80
2022/01/19 18:13:36;;;;;;;20.38;10.90;;;;;;;;;;5032634;28;20025;-78
2022/01/19 18:16:04;;;;;;;21.38;11.18;;;;;;;;;;5013037;28;20397;-80